Time;durP1;ratioP1;P1;durP2;ratioP2;P2;SDS_P1;SDS_P2;PMS_P1;PMS_P2;Temp;Humidity;BMP_temperature;BMP_pressure;BME280_temperature;BME280_humidity;BME280_pressure;Samples;Min_cycle;Max_cycle;Signal;HPM_P1;HPM_P2
2021/10/16 00:01:14;;;;;;;9.40;7.37;;;;;;;;;;5073282;28;20266;-84
2021/10/16 00:04:00;;;;;;;8.73;7.47;;;;;;;;;;5073442;28;20654;-85
2021/10/16 00:06:46;;;;;;;7.97;7.27;;;;;;;;;;5073461;28;20185;-84
2021/10/16 00:09:31;;;;;;;7.70;7.10;;;;;;;;;;5058429;28;20689;-84
2021/10/16 00:12:15;;;;;;;7.70;7.00;;;;;;;;;;5073142;28;20185;-84
2021/10/16 00:15:01;;;;;;;8.30;7.60;;;;;;;;;;5072897;28;20185;-84
2021/10/16 00:17:46;;;;;;;7.37;6.77;;;;;;;;;;5072953;28;20190;-84
2021/10/16 00:20:35;;;;;;;7.37;6.40;;;;;;;;;;5052798;28;20179;-84
2021/10/16 00:23:20;;;;;;;7.87;7.03;;;;;;;;;;5052921;28;20677;-84
2021/10/16 00:26:05;;;;;;;7.70;6.90;;;;;;;;;;5052829;28;20187;-84
2021/10/16 00:28:50;;;;;;;8.47;7.17;;;;;;;;;;5052882;28;20541;-84
2021/10/16 00:31:36;;;;;;;8.73;7.63;;;;;;;;;;5052871;28;20178;-84
2021/10/16 00:34:21;;;;;;;8.40;7.50;;;;;;;;;;5052596;28;20190;-84
2021/10/16 00:37:07;;;;;;;9.70;8.70;;;;;;;;;;5052830;28;20712;-84
2021/10/16 00:39:54;;;;;;;9.00;8.20;;;;;;;;;;5052694;28;20212;-84
2021/10/16 00:42:46;;;;;;;7.73;7.03;;;;;;;;;;5052879;28;20218;-84
2021/10/16 00:45:31;;;;;;;7.37;6.77;;;;;;;;;;5052956;28;20702;-84
2021/10/16 00:48:16;;;;;;;7.10;6.40;;;;;;;;;;5052696;28;20316;-84
2021/10/16 00:51:01;;;;;;;7.37;6.67;;;;;;;;;;5052916;28;20223;-84
2021/10/16 00:53:48;;;;;;;8.07;6.43;;;;;;;;;;5052692;28;20654;-84
2021/10/16 00:56:33;;;;;;;8.10;7.40;;;;;;;;;;5052696;28;20238;-84
2021/10/16 00:59:21;;;;;;;9.10;6.73;;;;;;;;;;5052764;28;20194;-84
2021/10/16 01:02:07;;;;;;;7.90;6.90;;;;;;;;;;5052651;28;20206;-84
2021/10/16 01:04:52;;;;;;;6.60;6.00;;;;;;;;;;5052648;28;20726;-84
2021/10/16 01:07:38;;;;;;;7.23;6.20;;;;;;;;;;5052641;28;20663;-85
2021/10/16 01:10:24;;;;;;;7.03;6.33;;;;;;;;;;5055788;28;20215;-84
2021/10/16 01:13:10;;;;;;;6.50;5.83;;;;;;;;;;5056456;28;20654;-84
2021/10/16 01:15:56;;;;;;;6.63;6.13;;;;;;;;;;5056113;28;20230;-84
2021/10/16 01:18:42;;;;;;;6.87;6.10;;;;;;;;;;5062761;28;20276;-84
2021/10/16 01:21:29;;;;;;;8.27;6.60;;;;;;;;;;5076191;28;20205;-84
2021/10/16 01:24:15;;;;;;;8.43;6.60;;;;;;;;;;5075953;28;20654;-84
2021/10/16 01:27:00;;;;;;;6.70;6.20;;;;;;;;;;5076022;28;20182;-83
2021/10/16 01:29:45;;;;;;;6.70;6.20;;;;;;;;;;5075867;28;20178;-84
2021/10/16 01:32:31;;;;;;;6.80;6.20;;;;;;;;;;5075966;28;20182;-84
2021/10/16 01:35:16;;;;;;;7.13;6.43;;;;;;;;;;5075894;28;20694;-84
2021/10/16 01:38:02;;;;;;;6.97;6.27;;;;;;;;;;5075956;28;20190;-84
2021/10/16 01:40:48;;;;;;;6.47;5.97;;;;;;;;;;5075714;28;20543;-83
2021/10/16 01:43:34;;;;;;;7.10;5.90;;;;;;;;;;5075653;28;20222;-84
2021/10/16 01:46:19;;;;;;;7.40;6.37;;;;;;;;;;5075680;28;20558;-84
2021/10/16 01:49:07;;;;;;;6.60;6.00;;;;;;;;;;5075521;28;20565;-84
2021/10/16 01:51:54;;;;;;;6.77;6.17;;;;;;;;;;5075553;28;20194;-84
2021/10/16 01:54:41;;;;;;;6.83;6.23;;;;;;;;;;5075457;28;20177;-84
2021/10/16 01:57:26;;;;;;;6.93;6.23;;;;;;;;;;5075513;28;20256;-84
2021/10/16 02:00:11;;;;;;;7.63;6.30;;;;;;;;;;5075306;28;20297;-84
2021/10/16 02:02:57;;;;;;;7.50;6.70;;;;;;;;;;5075191;28;20217;-83
2021/10/16 02:05:42;;;;;;;7.10;6.50;;;;;;;;;;5075284;28;20241;-84
2021/10/16 02:08:28;;;;;;;11.00;7.80;;;;;;;;;;5075371;28;20753;-84
2021/10/16 02:11:14;;;;;;;9.53;7.20;;;;;;;;;;5075293;28;20178;-84
2021/10/16 02:13:59;;;;;;;7.47;6.87;;;;;;;;;;5075038;28;20305;-83
2021/10/16 02:16:45;;;;;;;7.07;6.40;;;;;;;;;;5075009;28;20692;-83
2021/10/16 02:19:30;;;;;;;9.37;7.77;;;;;;;;;;5074879;28;20304;-83
2021/10/16 02:22:15;;;;;;;8.40;6.37;;;;;;;;;;5073922;28;20241;-83
2021/10/16 02:25:00;;;;;;;8.17;6.70;;;;;;;;;;5074641;28;20210;-84
2021/10/16 02:27:46;;;;;;;7.57;6.77;;;;;;;;;;5074777;28;20236;-84
2021/10/16 02:30:31;;;;;;;6.83;6.23;;;;;;;;;;5074848;28;20252;-83
2021/10/16 02:33:16;;;;;;;6.80;6.20;;;;;;;;;;5074551;28;20202;-84
2021/10/16 02:36:02;;;;;;;7.50;6.77;;;;;;;;;;5074489;28;20205;-83
2021/10/16 02:38:47;;;;;;;6.77;6.17;;;;;;;;;;5074357;28;20190;-83
2021/10/16 02:41:32;;;;;;;7.17;6.57;;;;;;;;;;5074535;28;20550;-83
2021/10/16 02:44:18;;;;;;;9.27;5.97;;;;;;;;;;5074562;28;20260;-83
2021/10/16 02:47:04;;;;;;;7.03;6.43;;;;;;;;;;5074496;28;20186;-83
2021/10/16 02:49:49;;;;;;;6.37;5.77;;;;;;;;;;5074381;28;20234;-83
2021/10/16 02:52:37;;;;;;;6.90;6.20;;;;;;;;;;5059067;28;20721;-84
2021/10/16 02:55:22;;;;;;;7.37;6.53;;;;;;;;;;5074487;28;20654;-84
2021/10/16 02:58:07;;;;;;;9.23;7.30;;;;;;;;;;5073972;28;20185;-84
2021/10/16 03:00:54;;;;;;;7.70;6.90;;;;;;;;;;5074109;28;20275;-84
2021/10/16 03:03:39;;;;;;;8.43;7.63;;;;;;;;;;5073986;28;20205;-83
2021/10/16 03:06:25;;;;;;;7.47;6.83;;;;;;;;;;5073870;28;20225;-83
2021/10/16 03:09:11;;;;;;;7.77;6.97;;;;;;;;;;5073774;28;20205;-83
2021/10/16 03:11:58;;;;;;;8.73;7.17;;;;;;;;;;5073859;28;20209;-83
2021/10/16 03:14:43;;;;;;;8.63;7.40;;;;;;;;;;5073711;28;20216;-84
2021/10/16 03:17:31;;;;;;;7.77;7.10;;;;;;;;;;5073794;28;20190;-84
2021/10/16 03:20:17;;;;;;;10.07;7.33;;;;;;;;;;5073494;28;20242;-83
2021/10/16 03:23:02;;;;;;;8.90;8.00;;;;;;;;;;5073480;28;20604;-84
2021/10/16 03:25:47;;;;;;;9.23;7.70;;;;;;;;;;5073324;28;20260;-83
2021/10/16 03:28:32;;;;;;;8.13;7.43;;;;;;;;;;5073549;28;20276;-84
2021/10/16 03:31:18;;;;;;;9.33;7.83;;;;;;;;;;5073706;28;20546;-84
2021/10/16 03:34:04;;;;;;;9.00;7.87;;;;;;;;;;5073479;28;20647;-83
2021/10/16 03:36:49;;;;;;;9.17;8.20;;;;;;;;;;5073353;28;20565;-84
2021/10/16 03:39:34;;;;;;;8.53;7.57;;;;;;;;;;5073082;28;20319;-84
2021/10/16 03:42:19;;;;;;;8.90;8.00;;;;;;;;;;5073287;28;20293;-83
2021/10/16 03:45:04;;;;;;;8.67;7.77;;;;;;;;;;5073378;28;20189;-83
2021/10/16 03:47:50;;;;;;;9.83;7.87;;;;;;;;;;5073241;28;20194;-84
2021/10/16 03:50:36;;;;;;;11.07;7.80;;;;;;;;;;5072981;28;20221;-85
2021/10/16 03:53:21;;;;;;;9.57;8.57;;;;;;;;;;5072868;28;20201;-83
2021/10/16 03:56:06;;;;;;;9.53;7.63;;;;;;;;;;5072830;28;20244;-83
2021/10/16 03:58:52;;;;;;;11.83;8.80;;;;;;;;;;5073260;28;20554;-84
2021/10/16 04:01:37;;;;;;;10.07;9.00;;;;;;;;;;5073000;28;20244;-84
2021/10/16 04:04:22;;;;;;;10.57;8.40;;;;;;;;;;5072889;28;20578;-81
2021/10/16 04:07:08;;;;;;;9.43;8.27;;;;;;;;;;5072565;28;20265;-83
2021/10/16 04:09:56;;;;;;;10.87;8.73;;;;;;;;;;5072525;28;20309;-83
2021/10/16 04:12:41;;;;;;;10.93;9.03;;;;;;;;;;5072612;28;20189;-83
2021/10/16 04:15:26;;;;;;;12.40;9.70;;;;;;;;;;5072347;28;20693;-83
2021/10/16 04:18:12;;;;;;;13.57;9.83;;;;;;;;;;5072464;28;20182;-81
2021/10/16 04:20:57;;;;;;;14.37;9.83;;;;;;;;;;5072461;28;20189;-82
2021/10/16 04:23:43;;;;;;;11.93;10.30;;;;;;;;;;5072486;28;20205;-82
2021/10/16 04:26:28;;;;;;;13.13;10.57;;;;;;;;;;5072356;28;20186;-82
2021/10/16 04:29:14;;;;;;;11.80;10.40;;;;;;;;;;5072712;28;20229;-82
2021/10/16 04:31:59;;;;;;;16.07;12.43;;;;;;;;;;5072174;28;20288;-83
2021/10/16 04:34:44;;;;;;;16.73;13.50;;;;;;;;;;5072166;28;20538;-83
2021/10/16 04:37:29;;;;;;;18.57;13.43;;;;;;;;;;5072604;28;20646;-83
2021/10/16 04:40:18;;;;;;;17.30;13.60;;;;;;;;;;5072332;28;20233;-83
2021/10/16 04:43:06;;;;;;;16.40;12.57;;;;;;;;;;5072071;28;20261;-83
2021/10/16 04:45:51;;;;;;;16.37;12.67;;;;;;;;;;5071888;28;20273;-83
2021/10/16 04:48:36;;;;;;;22.73;13.60;;;;;;;;;;5072414;28;20190;-83
2021/10/16 04:51:22;;;;;;;21.87;13.90;;;;;;;;;;5071988;28;20225;-83
2021/10/16 04:54:07;;;;;;;23.43;14.00;;;;;;;;;;5072180;28;20321;-83
2021/10/16 04:56:53;;;;;;;21.93;14.60;;;;;;;;;;5072142;28;20194;-83
2021/10/16 04:59:38;;;;;;;18.70;13.80;;;;;;;;;;5071869;28;20560;-83
2021/10/16 05:02:24;;;;;;;27.07;15.60;;;;;;;;;;5072127;28;20557;-83
2021/10/16 05:05:09;;;;;;;36.87;16.40;;;;;;;;;;5071843;28;20340;-83
2021/10/16 05:07:54;;;;;;;18.80;14.23;;;;;;;;;;5071811;28;20584;-83
2021/10/16 05:10:39;;;;;;;19.20;14.80;;;;;;;;;;5072036;28;20209;-83
2021/10/16 05:13:26;;;;;;;20.07;15.17;;;;;;;;;;5072159;28;20550;-82
2021/10/16 05:16:16;;;;;;;17.20;14.67;;;;;;;;;;5071891;28;20228;-81
2021/10/16 05:19:01;;;;;;;20.57;14.70;;;;;;;;;;5071769;28;20597;-82
2021/10/16 05:21:46;;;;;;;27.87;15.33;;;;;;;;;;5071917;28;20264;-82
2021/10/16 05:24:31;;;;;;;19.17;14.50;;;;;;;;;;5071326;28;20209;-82
2021/10/16 05:27:16;;;;;;;18.03;14.97;;;;;;;;;;5072150;28;20558;-82
2021/10/16 05:30:03;;;;;;;19.43;15.70;;;;;;;;;;5071721;28;20553;-83
2021/10/16 05:32:49;;;;;;;18.97;14.03;;;;;;;;;;5071499;28;20186;-82
2021/10/16 05:35:34;;;;;;;17.33;13.27;;;;;;;;;;5072134;28;20542;-82
2021/10/16 05:38:19;;;;;;;16.70;12.70;;;;;;;;;;5071959;28;20186;-82
2021/10/16 05:41:04;;;;;;;15.70;12.60;;;;;;;;;;5071840;28;20185;-81
2021/10/16 05:43:49;;;;;;;19.00;12.10;;;;;;;;;;5051708;28;20215;-83
2021/10/16 05:46:36;;;;;;;19.10;12.50;;;;;;;;;;5051756;28;20187;-83
2021/10/16 05:49:22;;;;;;;17.90;11.87;;;;;;;;;;5051809;28;20253;-81
2021/10/16 05:52:08;;;;;;;16.03;11.23;;;;;;;;;;5051379;28;20179;-84
2021/10/16 05:54:53;;;;;;;24.73;11.37;;;;;;;;;;5051907;28;20182;-84
2021/10/16 05:57:38;;;;;;;14.83;11.13;;;;;;;;;;5054547;28;20187;-84
2021/10/16 06:00:23;;;;;;;19.80;11.13;;;;;;;;;;5055123;28;20233;-84
2021/10/16 06:03:09;;;;;;;14.03;10.27;;;;;;;;;;5054844;28;20199;-84
2021/10/16 06:05:57;;;;;;;16.50;10.87;;;;;;;;;;5055402;28;20191;-84
2021/10/16 06:08:43;;;;;;;15.90;11.33;;;;;;;;;;5054865;28;20205;-84
2021/10/16 06:11:28;;;;;;;19.73;11.03;;;;;;;;;;5054882;28;20242;-84
2021/10/16 06:14:13;;;;;;;14.40;10.00;;;;;;;;;;5054876;28;20191;-83
2021/10/16 06:16:58;;;;;;;14.40;9.97;;;;;;;;;;5067241;28;20566;-84
2021/10/16 06:19:48;;;;;;;11.10;9.90;;;;;;;;;;5074993;28;20583;-83
2021/10/16 06:22:34;;;;;;;11.57;10.37;;;;;;;;;;5075012;28;20272;-83
2021/10/16 06:25:19;;;;;;;13.03;9.77;;;;;;;;;;5074586;28;20210;-83
2021/10/16 06:28:04;;;;;;;14.90;10.60;;;;;;;;;;5074097;28;20189;-86
2021/10/16 06:30:49;;;;;;;16.40;10.90;;;;;;;;;;5074734;28;20681;-85
2021/10/16 06:33:34;;;;;;;20.90;12.17;;;;;;;;;;5073811;28;20281;-86
2021/10/16 06:36:20;;;;;;;18.27;12.77;;;;;;;;;;5074063;28;20544;-85
2021/10/16 06:39:05;;;;;;;20.00;13.30;;;;;;;;;;5073697;28;20276;-86
2021/10/16 06:41:50;;;;;;;25.07;14.10;;;;;;;;;;5074476;28;20539;-86
2021/10/16 06:44:35;;;;;;;28.57;14.77;;;;;;;;;;5073795;28;20214;-87
2021/10/16 06:47:20;;;;;;;24.03;15.83;;;;;;;;;;5073942;28;20244;-87
2021/10/16 06:50:06;;;;;;;25.10;15.43;;;;;;;;;;5073485;28;20225;-86
2021/10/16 06:52:53;;;;;;;33.70;16.60;;;;;;;;;;5073587;28;20267;-86
2021/10/16 06:55:38;;;;;;;29.40;16.97;;;;;;;;;;5073518;28;20341;-86
2021/10/16 06:58:23;;;;;;;27.27;16.87;;;;;;;;;;5073390;28;20661;-87
2021/10/16 07:01:08;;;;;;;30.07;17.17;;;;;;;;;;5073248;28;20192;-86
2021/10/16 07:03:54;;;;;;;30.03;17.73;;;;;;;;;;5073281;28;20186;-86
2021/10/16 07:06:39;;;;;;;29.53;17.23;;;;;;;;;;5073341;28;20273;-86
2021/10/16 07:09:25;;;;;;;29.77;17.77;;;;;;;;;;5073526;28;20240;-86
2021/10/16 07:12:10;;;;;;;25.57;16.40;;;;;;;;;;5073570;28;20198;-86
2021/10/16 07:14:55;;;;;;;27.33;16.83;;;;;;;;;;5073439;28;20202;-85
2021/10/16 07:17:40;;;;;;;30.27;17.60;;;;;;;;;;5073420;28;20206;-89
2021/10/16 07:20:25;;;;;;;27.47;17.43;;;;;;;;;;5053366;28;20191;-88
2021/10/16 07:23:10;;;;;;;29.67;17.67;;;;;;;;;;5052935;28;20214;-86
2021/10/16 07:25:57;;;;;;;28.60;18.07;;;;;;;;;;5052001;28;20686;-86
2021/10/16 07:28:44;;;;;;;30.37;19.43;;;;;;;;;;5052842;28;20178;-86
2021/10/16 07:31:30;;;;;;;28.13;18.23;;;;;;;;;;5053173;28;20191;-87
2021/10/16 07:34:15;;;;;;;39.57;18.73;;;;;;;;;;5053144;28;20190;-87
2021/10/16 07:37:00;;;;;;;37.80;20.07;;;;;;;;;;5052656;28;20222;-87
2021/10/16 07:39:45;;;;;;;34.47;20.60;;;;;;;;;;5052584;28;20215;-88
2021/10/16 07:42:31;;;;;;;31.90;20.10;;;;;;;;;;5052609;28;20190;-87
2021/10/16 07:45:17;;;;;;;65.07;21.77;;;;;;;;;;5052713;28;20209;-87
2021/10/16 07:48:02;;;;;;;64.77;21.37;;;;;;;;;;5052543;28;20261;-87
2021/10/16 07:50:47;;;;;;;57.13;22.20;;;;;;;;;;5052613;28;20592;-88
2021/10/16 07:53:32;;;;;;;65.90;23.07;;;;;;;;;;5052409;28;20579;-87
2021/10/16 07:56:17;;;;;;;68.23;23.83;;;;;;;;;;5052551;28;20199;-88
2021/10/16 07:59:03;;;;;;;54.20;23.03;;;;;;;;;;5052192;28;20203;-87
2021/10/16 08:01:48;;;;;;;43.60;22.07;;;;;;;;;;5052442;28;20190;-87
2021/10/16 08:04:33;;;;;;;35.43;20.90;;;;;;;;;;5052211;28;20273;-87
2021/10/16 08:07:19;;;;;;;50.93;22.40;;;;;;;;;;5052134;28;20190;-87
2021/10/16 08:10:04;;;;;;;38.97;21.50;;;;;;;;;;5052187;28;20253;-86
2021/10/16 08:12:49;;;;;;;33.07;19.53;;;;;;;;;;5051867;28;20219;-86
2021/10/16 08:15:36;;;;;;;38.27;18.73;;;;;;;;;;5051736;28;20191;-87
2021/10/16 08:18:21;;;;;;;50.93;18.73;;;;;;;;;;5054754;28;20759;-87
2021/10/16 08:21:06;;;;;;;31.60;18.90;;;;;;;;;;5071693;28;20657;-87
2021/10/16 08:23:51;;;;;;;30.03;20.10;;;;;;;;;;5071754;28;20182;-86
2021/10/16 08:26:36;;;;;;;41.83;19.63;;;;;;;;;;5071709;28;20210;-86
2021/10/16 08:29:21;;;;;;;31.60;19.60;;;;;;;;;;5071952;28;20673;-87
2021/10/16 08:32:08;;;;;;;29.67;19.03;;;;;;;;;;5071561;28;20181;-86
2021/10/16 08:34:53;;;;;;;27.87;19.27;;;;;;;;;;5071596;28;20190;-85
2021/10/16 08:37:38;;;;;;;27.50;18.43;;;;;;;;;;5071614;28;20197;-86
2021/10/16 08:40:25;;;;;;;28.53;18.80;;;;;;;;;;5071590;28;20233;-87
2021/10/16 08:43:10;;;;;;;32.97;20.70;;;;;;;;;;5071455;28;20498;-87
2021/10/16 08:45:57;;;;;;;29.43;20.07;;;;;;;;;;5071167;28;20214;-86
2021/10/16 08:48:43;;;;;;;34.27;20.73;;;;;;;;;;5071612;28;20548;-83
2021/10/16 08:51:29;;;;;;;32.73;19.80;;;;;;;;;;5071596;28;20296;-84
2021/10/16 08:54:13;;;;;;;28.97;19.43;;;;;;;;;;5071833;28;20217;-87
2021/10/16 08:56:58;;;;;;;28.37;19.97;;;;;;;;;;5071375;28;20194;-87
2021/10/16 08:59:43;;;;;;;31.80;19.87;;;;;;;;;;5071816;28;20267;-87
2021/10/16 09:02:36;;;;;;;32.17;20.30;;;;;;;;;;5071601;28;20271;-87
2021/10/16 09:05:22;;;;;;;39.67;22.93;;;;;;;;;;5071498;28;20574;-87
2021/10/16 09:08:10;;;;;;;33.97;22.70;;;;;;;;;;5071522;28;20729;-87
2021/10/16 09:11:10;;;;;;;33.27;22.97;;;;;;;;;;5071229;28;20193;-87
2021/10/16 09:13:56;;;;;;;33.50;22.30;;;;;;;;;;5071302;28;20186;-87
2021/10/16 09:16:42;;;;;;;32.40;22.53;;;;;;;;;;5071398;28;20186;-88
2021/10/16 09:19:28;;;;;;;33.87;22.27;;;;;;;;;;5071050;28;20700;-87
2021/10/16 09:22:19;;;;;;;29.93;20.57;;;;;;;;;;5071533;28;20325;-87
2021/10/16 09:25:08;;;;;;;31.73;21.63;;;;;;;;;;5071179;28;20181;-87
2021/10/16 09:28:08;;;;;;;32.10;20.50;;;;;;;;;;5071623;28;20206;-87
2021/10/16 09:30:53;;;;;;;30.97;20.70;;;;;;;;;;5074586;28;20670;-87
2021/10/16 09:33:45;;;;;;;37.03;22.73;;;;;;;;;;5075301;28;20198;-87
2021/10/16 09:36:31;;;;;;;34.23;20.73;;;;;;;;;;5075326;28;20320;-88
2021/10/16 09:39:18;;;;;;;31.90;20.97;;;;;;;;;;5075427;28;20186;-86
2021/10/16 09:42:03;;;;;;;30.47;20.23;;;;;;;;;;5075150;28;20319;-87
2021/10/16 09:44:56;;;;;;;30.03;20.10;;;;;;;;;;5075132;28;20710;-87
2021/10/16 09:47:52;;;;;;;29.87;19.97;;;;;;;;;;5075276;28;20186;-87
2021/10/16 09:50:37;;;;;;;26.03;19.40;;;;;;;;;;5074556;28;20760;-87
2021/10/16 09:53:22;;;;;;;28.13;20.13;;;;;;;;;;5074900;28;20185;-88
2021/10/16 09:56:09;;;;;;;28.17;19.50;;;;;;;;;;5074981;28;20194;-87
2021/10/16 09:58:54;;;;;;;28.00;20.03;;;;;;;;;;5074702;28;20194;-87
2021/10/16 10:01:39;;;;;;;30.53;19.70;;;;;;;;;;5074870;28;20320;-87
2021/10/16 10:04:24;;;;;;;25.90;19.43;;;;;;;;;;5075002;28;20197;-87
2021/10/16 10:07:10;;;;;;;31.57;19.63;;;;;;;;;;5074701;28;20209;-87
2021/10/16 10:09:58;;;;;;;24.60;19.23;;;;;;;;;;5074616;28;20205;-87
2021/10/16 10:12:45;;;;;;;30.13;20.63;;;;;;;;;;5074577;28;20266;-87
2021/10/16 10:15:31;;;;;;;31.23;20.83;;;;;;;;;;5074616;28;20182;-88
2021/10/16 10:21:19;;;;;;;26.33;19.10;;;;;;;;;;5074655;28;20186;-86
2021/10/16 10:24:05;;;;;;;23.80;17.90;;;;;;;;;;5074298;28;20210;-87
2021/10/16 10:26:50;;;;;;;27.43;19.10;;;;;;;;;;5074113;28;20221;-87
2021/10/16 10:29:37;;;;;;;27.80;19.67;;;;;;;;;;5074706;28;20210;-86
2021/10/16 10:32:24;;;;;;;24.53;18.50;;;;;;;;;;5074315;28;20185;-87
2021/10/16 10:35:10;;;;;;;22.73;17.37;;;;;;;;;;5073825;28;20201;-89
2021/10/16 10:37:55;;;;;;;24.23;17.47;;;;;;;;;;5073710;28;20555;-87
2021/10/16 10:40:40;;;;;;;25.03;17.83;;;;;;;;;;5073624;28;20181;-86
2021/10/16 10:43:37;;;;;;;22.53;16.23;;;;;;;;;;5072905;28;20186;-85
2021/10/16 10:46:25;;;;;;;21.70;16.77;;;;;;;;;;5073129;28;20201;-81
2021/10/16 10:49:12;;;;;;;23.03;16.73;;;;;;;;;;5073517;28;20737;-84
2021/10/16 10:51:59;;;;;;;23.67;15.77;;;;;;;;;;5073426;28;20185;-86
2021/10/16 10:55:10;;;;;;;25.00;15.37;;;;;;;;;;5073283;28;20182;-86
2021/10/16 10:57:58;;;;;;;21.07;15.50;;;;;;;;;;5073295;28;20190;-84
2021/10/16 11:00:43;;;;;;;19.57;15.23;;;;;;;;;;5072896;28;20189;-87
2021/10/16 11:03:45;;;;;;;21.63;15.10;;;;;;;;;;5073097;28;20232;-87
2021/10/16 11:06:30;;;;;;;19.50;14.03;;;;;;;;;;5072813;28;20560;-87
2021/10/16 11:09:16;;;;;;;18.23;14.47;;;;;;;;;;5072922;28;20642;-87
2021/10/16 11:12:01;;;;;;;16.23;13.87;;;;;;;;;;5073246;28;20266;-90
2021/10/16 11:14:46;;;;;;;17.37;14.60;;;;;;;;;;5072751;28;20308;-82
2021/10/16 11:17:36;;;;;;;20.13;15.17;;;;;;;;;;5073247;28;20191;-81
2021/10/16 11:20:29;;;;;;;20.80;15.07;;;;;;;;;;5072820;28;20586;-83
2021/10/16 11:23:17;;;;;;;20.10;15.27;;;;;;;;;;5072980;28;20248;-86
2021/10/16 11:26:04;;;;;;;21.57;15.43;;;;;;;;;;5071983;28;20561;-86
2021/10/16 11:28:49;;;;;;;18.93;15.93;;;;;;;;;;5072136;28;20264;-86
2021/10/16 11:31:34;;;;;;;29.53;16.40;;;;;;;;;;5072809;28;20668;-85
2021/10/16 11:34:20;;;;;;;25.50;17.47;;;;;;;;;;5073244;28;20190;-85
2021/10/16 11:37:06;;;;;;;23.53;16.93;;;;;;;;;;5073125;28;20202;-85
2021/10/16 11:39:59;;;;;;;20.73;14.87;;;;;;;;;;5072548;28;20201;-82
2021/10/16 11:42:45;;;;;;;20.00;15.83;;;;;;;;;;5072913;28;20186;-86
2021/10/16 11:45:31;;;;;;;24.40;17.87;;;;;;;;;;5072784;28;20268;-83
2021/10/16 11:48:18;;;;;;;24.63;17.50;;;;;;;;;;5073023;28;20221;-85
2021/10/16 11:51:09;;;;;;;22.67;17.47;;;;;;;;;;5072213;28;20225;-87
2021/10/16 11:53:55;;;;;;;23.83;16.83;;;;;;;;;;5072250;28;20681;-87
2021/10/16 11:56:40;;;;;;;21.63;15.23;;;;;;;;;;5072755;28;20189;-86
2021/10/16 11:59:25;;;;;;;20.73;14.43;;;;;;;;;;5072034;28;20186;-86
2021/10/16 12:02:10;;;;;;;18.73;14.67;;;;;;;;;;5072236;28;20183;-85
2021/10/16 12:05:07;;;;;;;18.67;13.87;;;;;;;;;;5072123;28;20267;-89
2021/10/16 12:07:56;;;;;;;13.33;10.80;;;;;;;;;;5071609;28;20685;-88
2021/10/16 12:10:47;;;;;;;20.10;13.07;;;;;;;;;;5071122;28;20543;-89
2021/10/16 12:13:33;;;;;;;18.60;13.60;;;;;;;;;;5071038;28;20681;-88
2021/10/16 12:16:19;;;;;;;17.00;11.50;;;;;;;;;;5071620;28;20185;-88
2021/10/16 12:19:05;;;;;;;16.20;11.23;;;;;;;;;;5070219;28;20315;-87
2021/10/16 12:21:52;;;;;;;13.97;11.93;;;;;;;;;;5070731;28;20554;-88
2021/10/16 12:24:38;;;;;;;15.70;12.63;;;;;;;;;;5071994;28;20270;-89
2021/10/16 12:27:29;;;;;;;19.40;14.17;;;;;;;;;;5071769;28;20225;-83
2021/10/16 12:30:14;;;;;;;19.70;14.03;;;;;;;;;;5071919;28;20241;-85
2021/10/16 12:33:10;;;;;;;17.23;12.83;;;;;;;;;;5072238;28;20194;-86
2021/10/16 12:35:59;;;;;;;14.23;11.83;;;;;;;;;;5076157;28;20194;-93
2021/10/16 12:38:47;;;;;;;16.53;11.20;;;;;;;;;;5072517;28;20186;-87
2021/10/16 12:41:34;;;;;;;18.30;12.13;;;;;;;;;;5072132;28;20190;-88
2021/10/16 12:44:23;;;;;;;16.40;12.10;;;;;;;;;;5072038;28;20182;-92
2021/10/16 12:47:09;;;;;;;15.27;11.93;;;;;;;;;;5071356;28;20221;-89
2021/10/16 12:50:01;;;;;;;17.93;12.37;;;;;;;;;;5072427;28;20222;-92
2021/10/16 12:52:46;;;;;;;15.87;12.67;;;;;;;;;;5071654;28;20190;-92
2021/10/16 12:55:32;;;;;;;16.30;12.37;;;;;;;;;;5072011;28;20190;-94
2021/10/16 12:58:17;;;;;;;16.87;12.87;;;;;;;;;;5071858;28;20278;-93
2021/10/16 13:01:03;;;;;;;17.13;13.43;;;;;;;;;;5072554;28;20186;-93
2021/10/16 13:03:48;;;;;;;19.87;13.80;;;;;;;;;;5072586;28;20210;-91
2021/10/16 13:06:34;;;;;;;16.73;12.60;;;;;;;;;;5074749;28;20185;-92
2021/10/16 13:09:19;;;;;;;19.57;14.17;;;;;;;;;;5075545;28;20193;-94
2021/10/16 13:12:04;;;;;;;17.93;13.57;;;;;;;;;;5075193;28;20232;-92
2021/10/16 13:14:49;;;;;;;17.17;13.77;;;;;;;;;;5075447;28;20224;-92
2021/10/16 13:17:36;;;;;;;17.60;13.53;;;;;;;;;;5075085;28;20684;-90
2021/10/16 13:20:21;;;;;;;20.20;13.90;;;;;;;;;;5075216;28;20222;-93
2021/10/16 13:23:06;;;;;;;18.70;13.43;;;;;;;;;;5075252;28;20249;-92
2021/10/16 13:25:51;;;;;;;18.50;12.73;;;;;;;;;;5082864;28;20193;-95
2021/10/16 13:28:36;;;;;;;17.00;13.13;;;;;;;;;;5075458;28;20403;-92
2021/10/16 13:31:21;;;;;;;17.40;13.93;;;;;;;;;;5076792;28;20190;-93
2021/10/16 13:34:07;;;;;;;17.10;13.10;;;;;;;;;;5075935;28;20182;-93
2021/10/16 13:36:53;;;;;;;20.27;13.03;;;;;;;;;;5075658;28;20665;-91
2021/10/16 13:39:38;;;;;;;15.57;11.13;;;;;;;;;;5075892;28;20185;-92
2021/10/16 13:42:23;;;;;;;15.67;11.77;;;;;;;;;;5076225;28;20181;-92
2021/10/16 13:45:10;;;;;;;14.70;11.93;;;;;;;;;;5077721;28;20232;-92
2021/10/16 13:47:55;;;;;;;13.17;11.17;;;;;;;;;;5075653;28;20229;-94
2021/10/16 13:50:42;;;;;;;13.33;11.47;;;;;;;;;;5077068;28;20222;-93
2021/10/16 13:53:27;;;;;;;12.90;10.90;;;;;;;;;;5078684;28;20197;-93
2021/10/16 13:56:12;;;;;;;14.27;10.93;;;;;;;;;;5075764;28;20189;-95
2021/10/16 13:58:57;;;;;;;12.87;11.20;;;;;;;;;;5076504;28;20268;-93
2021/10/16 14:01:42;;;;;;;13.32;11.10;;;;;;;;;;5077276;28;20218;-95
2021/10/16 14:04:28;;;;;;;16.08;11.15;;;;;;;;;;5075423;28;20258;-95
2021/10/16 14:07:15;;;;;;;12.68;10.30;;;;;;;;;;5074900;28;20210;-88
2021/10/16 14:10:00;;;;;;;11.32;9.73;;;;;;;;;;5074795;28;20185;-89
2021/10/16 14:12:45;;;;;;;19.98;10.40;;;;;;;;;;5075051;28;20668;-91
2021/10/16 14:15:30;;;;;;;14.38;10.75;;;;;;;;;;5074922;28;20261;-92
2021/10/16 14:18:15;;;;;;;12.20;10.38;;;;;;;;;;5073567;28;20191;-91
2021/10/16 14:21:00;;;;;;;16.55;12.57;;;;;;;;;;5074238;28;20222;-90
2021/10/16 14:23:46;;;;;;;11.90;10.32;;;;;;;;;;5073889;28;20189;-88
2021/10/16 14:26:32;;;;;;;14.60;12.68;;;;;;;;;;5073865;28;20558;-87
2021/10/16 14:29:17;;;;;;;22.40;13.53;;;;;;;;;;5073878;28;20198;-87
2021/10/16 14:32:02;;;;;;;18.10;12.60;;;;;;;;;;5073582;28;20263;-89
2021/10/16 14:34:47;;;;;;;15.97;13.27;;;;;;;;;;5073514;28;20189;-89
2021/10/16 14:37:32;;;;;;;14.97;12.03;;;;;;;;;;5073103;28;20190;-88
2021/10/16 14:40:18;;;;;;;15.67;12.93;;;;;;;;;;5073146;28;20190;-88
2021/10/16 14:43:03;;;;;;;14.57;12.30;;;;;;;;;;5072699;28;20194;-89
2021/10/16 14:45:48;;;;;;;14.87;12.07;;;;;;;;;;5072956;28;20190;-88
2021/10/16 14:48:34;;;;;;;16.27;12.50;;;;;;;;;;5073006;28;20347;-88
2021/10/16 14:51:19;;;;;;;17.70;12.10;;;;;;;;;;5072834;28;20226;-89
2021/10/16 14:54:04;;;;;;;17.10;14.03;;;;;;;;;;5073067;28;20320;-89
2021/10/16 14:56:51;;;;;;;16.43;13.57;;;;;;;;;;5073685;28;20261;-80
2021/10/16 14:59:36;;;;;;;17.80;13.83;;;;;;;;;;5073375;28;20185;-86
2021/10/16 15:02:21;;;;;;;15.07;13.47;;;;;;;;;;5073188;28;20185;-86
2021/10/16 15:05:06;;;;;;;14.50;12.40;;;;;;;;;;5073083;28;20251;-87
2021/10/16 15:07:51;;;;;;;20.60;15.20;;;;;;;;;;5073112;28;20232;-87
2021/10/16 15:10:36;;;;;;;14.40;12.93;;;;;;;;;;5073201;28;20190;-88
2021/10/16 15:13:22;;;;;;;15.50;13.90;;;;;;;;;;5073328;28;20213;-88
2021/10/16 15:16:08;;;;;;;14.57;13.07;;;;;;;;;;5073395;28;20177;-88
2021/10/16 15:18:53;;;;;;;17.23;14.05;;;;;;;;;;5072774;28;20644;-88
2021/10/16 15:21:38;;;;;;;17.80;14.63;;;;;;;;;;5072827;28;20772;-87
2021/10/16 15:24:23;;;;;;;18.60;14.73;;;;;;;;;;5072791;28;20266;-87
2021/10/16 15:27:08;;;;;;;16.30;14.03;;;;;;;;;;5071084;28;20198;-87
2021/10/16 15:29:55;;;;;;;19.23;15.07;;;;;;;;;;5071113;28;20210;-87
2021/10/16 15:32:40;;;;;;;16.50;14.63;;;;;;;;;;5070683;28;20229;-87
2021/10/16 15:35:25;;;;;;;17.70;14.30;;;;;;;;;;5070544;28;20193;-86
2021/10/16 15:38:10;;;;;;;17.70;14.00;;;;;;;;;;5070586;28;20182;-85
2021/10/16 15:40:56;;;;;;;17.90;14.00;;;;;;;;;;5070322;28;20260;-86
2021/10/16 15:43:41;;;;;;;17.97;13.67;;;;;;;;;;5069909;28;20209;-86
2021/10/16 15:46:28;;;;;;;15.83;13.63;;;;;;;;;;5070329;28;20197;-86
2021/10/16 15:49:13;;;;;;;15.07;12.43;;;;;;;;;;5070279;28;20685;-88
2021/10/16 15:51:58;;;;;;;15.07;12.73;;;;;;;;;;5070559;28;20257;-86
2021/10/16 15:54:43;;;;;;;16.37;13.00;;;;;;;;;;5070037;28;20665;-86
2021/10/16 15:57:28;;;;;;;15.50;12.77;;;;;;;;;;5070557;28;20190;-85
2021/10/16 16:00:13;;;;;;;13.00;11.60;;;;;;;;;;5070422;28;20284;-85
2021/10/16 16:03:00;;;;;;;14.17;11.97;;;;;;;;;;5071035;28;20190;-85
2021/10/16 16:05:46;;;;;;;15.27;12.17;;;;;;;;;;5070968;28;20193;-86
2021/10/16 16:08:34;;;;;;;15.63;11.50;;;;;;;;;;5070506;28;20214;-86
2021/10/16 16:11:19;;;;;;;15.57;13.10;;;;;;;;;;5070467;28;20320;-86
2021/10/16 16:14:04;;;;;;;14.70;12.97;;;;;;;;;;5070308;28;20193;-86
2021/10/16 16:16:57;;;;;;;15.43;12.23;;;;;;;;;;5071732;28;20193;-87